createdAt,value
2022-12-14T00:01:10.189Z,78.38
2022-12-14T00:03:33.871Z,78.33
2022-12-14T00:05:57.498Z,77.84
2022-12-14T00:08:22.615Z,77.67
2022-12-14T00:10:46.515Z,77.37
2022-12-14T00:13:15.918Z,78.31
2022-12-14T00:15:39.812Z,77.89
2022-12-14T00:18:03.660Z,77.92
2022-12-14T00:20:28.114Z,77.71
2022-12-14T00:22:51.841Z,77.42
2022-12-14T00:25:16.876Z,77.42
2022-12-14T00:27:44.838Z,77.61
2022-12-14T00:30:10.032Z,78.10
2022-12-14T00:32:35.255Z,77.85
2022-12-14T00:35:01.477Z,77.83
2022-12-14T00:37:25.112Z,78.25
2022-12-14T00:39:48.870Z,78.01
2022-12-14T00:42:13.896Z,78.22
2022-12-14T00:44:37.457Z,77.92
2022-12-14T00:47:02.476Z,77.42
2022-12-14T00:49:26.055Z,77.67
2022-12-14T00:51:49.899Z,77.31
2022-12-14T00:54:13.483Z,77.24
2022-12-14T00:56:37.210Z,78.21
2022-12-14T00:59:02.240Z,77.40
2022-12-14T01:01:26.135Z,78.59
2022-12-14T01:03:50.355Z,77.49
2022-12-14T01:06:20.488Z,77.33
2022-12-14T01:08:44.152Z,77.44
2022-12-14T01:11:08.794Z,78.12
2022-12-14T01:13:32.499Z,77.50
2022-12-14T01:16:05.058Z,77.29
2022-12-14T01:18:28.725Z,78.50
2022-12-14T01:20:52.286Z,78.68
2022-12-14T01:23:16.526Z,77.96
2022-12-14T01:25:40.136Z,77.64
2022-12-14T01:28:03.940Z,77.98
2022-12-14T01:30:27.764Z,78.91
2022-12-14T01:32:52.812Z,79.13
2022-12-14T01:35:17.393Z,78.57
2022-12-14T01:37:41.161Z,78.84
2022-12-14T01:40:05.340Z,78.71
2022-12-14T01:42:29.011Z,78.78
2022-12-14T01:44:59.258Z,78.55
2022-12-14T01:47:38.379Z,78.73
2022-12-14T01:50:10.596Z,79.24
2022-12-14T01:52:40.577Z,78.74
2022-12-14T01:55:07.926Z,78.33
2022-12-14T01:57:37.095Z,79.87
2022-12-14T02:00:06.960Z,80.32
2022-12-14T02:02:32.891Z,80.10
2022-12-14T02:05:03.326Z,79.66
2022-12-14T02:07:30.014Z,79.14
2022-12-14T02:09:54.257Z,78.75
2022-12-14T02:12:22.136Z,78.57
2022-12-14T02:14:46.237Z,78.11
2022-12-14T02:17:13.068Z,77.86
2022-12-14T02:19:37.973Z,78.55
2022-12-14T02:22:34.292Z,78.58
2022-12-14T02:25:22.100Z,78.46
2022-12-14T02:28:33.038Z,78.31
2022-12-14T02:31:04.658Z,78.52
2022-12-14T02:33:44.107Z,78.68
2022-12-14T02:36:18.173Z,78.45
2022-12-14T02:38:53.586Z,78.74
2022-12-14T02:41:25.351Z,79.36
2022-12-14T02:43:58.988Z,78.88
2022-12-14T02:46:30.584Z,77.69
2022-12-14T02:49:03.304Z,77.88
2022-12-14T02:51:41.134Z,77.48
2022-12-14T02:54:11.188Z,78.14
2022-12-14T02:56:42.755Z,78.15
2022-12-14T02:59:10.241Z,78.51
2022-12-14T03:01:38.244Z,78.68
2022-12-14T03:04:03.599Z,78.30
2022-12-14T03:06:27.628Z,78.74
2022-12-14T03:08:51.557Z,78.22
2022-12-14T03:11:22.220Z,77.90
2022-12-14T03:13:51.595Z,78.81
2022-12-14T03:16:21.319Z,78.37
2022-12-14T03:18:51.542Z,78.53
2022-12-14T03:21:19.741Z,78.61
2022-12-14T03:23:46.983Z,78.38
2022-12-14T03:26:17.235Z,78.47
2022-12-14T03:28:48.240Z,78.05
2022-12-14T03:31:16.644Z,78.82
2022-12-14T03:33:42.811Z,78.81
2022-12-14T03:36:14.692Z,78.75
2022-12-14T03:38:43.050Z,78.28
2022-12-14T03:41:20.313Z,78.63
2022-12-14T03:43:59.392Z,77.84
2022-12-14T03:46:33.694Z,78.03
2022-12-14T03:49:05.849Z,78.58
2022-12-14T03:51:40.407Z,77.83
2022-12-14T03:54:13.562Z,78.02
2022-12-14T03:56:51.156Z,78.62
2022-12-14T03:59:24.816Z,77.97
2022-12-14T04:01:55.792Z,78.43
2022-12-14T04:04:25.389Z,77.84
2022-12-14T04:07:01.277Z,77.79
2022-12-14T04:09:34.521Z,78.21
2022-12-14T04:12:21.728Z,79.24
2022-12-14T04:15:23.306Z,79.42
2022-12-14T04:18:12.018Z,78.55
2022-12-14T04:20:44.678Z,78.50
2022-12-14T04:23:37.904Z,77.57
2022-12-14T04:26:05.202Z,77.92
2022-12-14T04:28:52.483Z,78.29
2022-12-14T04:31:22.138Z,77.87
2022-12-14T04:33:55.984Z,78.48
2022-12-14T04:36:25.581Z,78.49
2022-12-14T04:38:56.738Z,78.51
2022-12-14T04:41:26.189Z,78.64
2022-12-14T04:43:52.297Z,78.67
2022-12-14T04:46:20.901Z,78.35
2022-12-14T04:48:51.993Z,78.34
2022-12-14T04:51:25.803Z,78.12
2022-12-14T04:53:55.929Z,78.79
2022-12-14T04:56:26.139Z,78.16
2022-12-14T04:58:50.365Z,79.36
2022-12-14T05:01:32.674Z,79.15
2022-12-14T05:04:09.612Z,78.99
2022-12-14T05:06:45.584Z,79.63
2022-12-14T05:09:19.100Z,79.04
2022-12-14T05:11:53.506Z,79.09
2022-12-14T05:14:25.358Z,80.03
2022-12-14T05:16:50.424Z,80.76
2022-12-14T05:19:15.960Z,80.45
2022-12-14T05:21:48.421Z,80.16
2022-12-14T05:24:13.477Z,80.15
2022-12-14T05:26:37.354Z,80.42
2022-12-14T05:29:01.020Z,80.89
2022-12-14T05:31:25.042Z,81.09
2022-12-14T05:33:48.695Z,80.74
2022-12-14T05:36:12.321Z,80.28
2022-12-14T05:38:35.986Z,80.51
2022-12-14T05:41:01.003Z,81.50
2022-12-14T05:43:25.027Z,82.37
2022-12-14T05:45:48.838Z,81.84
2022-12-14T05:48:12.514Z,82.41
2022-12-14T05:50:36.087Z,81.40
2022-12-14T05:52:59.758Z,82.90
2022-12-14T05:55:23.730Z,81.50
2022-12-14T05:57:48.867Z,80.88
2022-12-14T06:00:13.928Z,80.86
2022-12-14T06:02:37.724Z,80.23
2022-12-14T06:05:01.315Z,80.11
2022-12-14T06:07:27.985Z,80.38
2022-12-14T06:09:52.024Z,79.28
2022-12-14T06:12:15.645Z,79.49
2022-12-14T06:14:40.676Z,79.91
2022-12-14T06:17:04.427Z,79.33
2022-12-14T06:19:28.099Z,79.46
2022-12-14T06:21:51.725Z,78.83
2022-12-14T06:24:15.843Z,78.37
2022-12-14T06:26:41.002Z,78.59
2022-12-14T06:29:05.791Z,77.80
2022-12-14T06:31:33.364Z,78.02
2022-12-14T06:33:59.934Z,78.00
2022-12-14T06:36:26.844Z,77.47
2022-12-14T06:38:50.677Z,77.71
2022-12-14T06:41:14.510Z,77.42
2022-12-14T06:43:38.089Z,77.84
2022-12-14T06:46:01.826Z,77.83
2022-12-14T06:48:26.892Z,77.43
2022-12-14T06:50:50.920Z,77.12
2022-12-14T06:53:15.045Z,76.97
2022-12-14T06:55:38.777Z,77.78
2022-12-14T06:58:02.409Z,77.56
2022-12-14T07:00:26.752Z,77.63
2022-12-14T07:02:51.187Z,77.05
2022-12-14T07:05:17.034Z,77.38
2022-12-14T07:07:40.691Z,76.59
2022-12-14T07:10:05.952Z,76.62
2022-12-14T07:12:29.650Z,77.40
2022-12-14T07:14:53.301Z,77.56
2022-12-14T07:17:16.896Z,78.24
2022-12-14T07:19:40.563Z,77.88
2022-12-14T07:22:05.666Z,77.69
2022-12-14T07:24:29.338Z,77.59
2022-12-14T07:26:53.648Z,77.89
2022-12-14T07:29:17.638Z,77.60
2022-12-14T07:31:41.280Z,77.91
2022-12-14T07:34:05.008Z,76.98
2022-12-14T07:36:30.688Z,77.16
2022-12-14T07:38:56.805Z,77.11
2022-12-14T07:41:25.586Z,77.70
2022-12-14T07:43:49.638Z,78.01
2022-12-14T07:46:16.361Z,78.31
2022-12-14T07:48:40.512Z,77.51
2022-12-14T07:51:07.369Z,77.89
2022-12-14T07:53:31.384Z,78.36
2022-12-14T07:55:56.633Z,77.80
2022-12-14T07:58:20.381Z,77.99
2022-12-14T08:00:43.960Z,78.09
2022-12-14T08:03:07.615Z,78.74
2022-12-14T08:05:31.228Z,79.00
2022-12-14T08:07:54.965Z,79.69
2022-12-14T08:10:18.807Z,79.68
2022-12-14T08:12:43.821Z,80.03
2022-12-14T08:15:09.759Z,78.90
2022-12-14T08:17:34.105Z,79.23
2022-12-14T08:19:57.726Z,80.17
2022-12-14T08:22:21.422Z,79.93
2022-12-14T08:24:49.356Z,79.80
2022-12-14T08:27:13.411Z,79.44
2022-12-14T08:29:38.522Z,79.83
2022-12-14T08:32:02.644Z,80.40
2022-12-14T08:34:26.216Z,80.42
2022-12-14T08:36:50.404Z,80.29
2022-12-14T08:39:14.515Z,79.81
2022-12-14T08:41:38.831Z,79.02
2022-12-14T08:44:04.366Z,80.23
2022-12-14T08:46:32.349Z,80.33
2022-12-14T08:48:57.156Z,80.64
2022-12-14T08:51:21.429Z,80.78
2022-12-14T08:53:47.687Z,80.77
2022-12-14T08:56:14.364Z,80.56
2022-12-14T08:58:38.224Z,80.29
2022-12-14T09:01:04.499Z,79.97
2022-12-14T09:03:30.107Z,80.46
2022-12-14T09:05:54.187Z,80.41
2022-12-14T09:08:18.092Z,80.82
2022-12-14T09:10:41.742Z,81.58
2022-12-14T09:13:05.371Z,81.01
2022-12-14T09:15:29.077Z,81.14
2022-12-14T09:17:52.714Z,81.69
2022-12-14T09:20:19.078Z,81.62
2022-12-14T09:22:42.683Z,81.11
2022-12-14T09:25:07.413Z,81.50
2022-12-14T09:27:31.047Z,81.25
2022-12-14T09:29:54.760Z,81.08
2022-12-14T09:32:18.429Z,81.47
2022-12-14T09:34:42.145Z,80.99
2022-12-14T09:37:07.919Z,80.78
2022-12-14T09:39:31.777Z,80.45
2022-12-14T09:42:08.924Z,80.61
2022-12-14T09:44:51.734Z,79.77
2022-12-14T09:47:20.724Z,79.31
2022-12-14T09:49:49.527Z,80.10
2022-12-14T09:52:19.032Z,79.39
2022-12-14T09:54:44.817Z,78.97
2022-12-14T09:57:22.738Z,79.21
2022-12-14T09:59:46.565Z,79.05
2022-12-14T10:02:42.200Z,78.71
2022-12-14T10:05:24.885Z,78.57
2022-12-14T10:08:01.842Z,78.23
2022-12-14T10:10:30.351Z,78.07
2022-12-14T10:13:05.167Z,78.05
2022-12-14T10:15:34.308Z,77.95
2022-12-14T10:18:59.107Z,78.20
2022-12-14T10:21:25.214Z,78.08
2022-12-14T10:23:57.750Z,77.81
2022-12-14T10:26:24.559Z,77.91
2022-12-14T10:28:59.273Z,77.73
2022-12-14T10:31:34.779Z,77.71
2022-12-14T10:34:12.343Z,78.07
2022-12-14T10:36:51.798Z,76.83
2022-12-14T10:39:26.370Z,76.99
2022-12-14T10:41:58.684Z,76.52
2022-12-14T10:44:29.689Z,76.39
2022-12-14T10:47:00.224Z,77.60
2022-12-14T10:49:30.017Z,76.33
2022-12-14T10:52:01.625Z,77.09
2022-12-14T10:54:34.334Z,75.83
2022-12-14T10:56:58.416Z,76.44
2022-12-14T10:59:39.834Z,75.67
2022-12-14T11:02:15.559Z,75.44
2022-12-14T11:04:46.708Z,76.30
2022-12-14T11:07:15.023Z,75.32
2022-12-14T11:09:41.004Z,75.44
2022-12-14T11:12:12.718Z,74.93
2022-12-14T11:14:38.233Z,74.78
2022-12-14T11:17:02.046Z,74.67
2022-12-14T11:19:27.385Z,75.07
2022-12-14T11:21:52.677Z,74.92
2022-12-14T11:24:25.348Z,74.19
2022-12-14T11:26:51.303Z,74.07
2022-12-14T11:29:22.676Z,73.78
2022-12-14T11:31:48.465Z,74.24
2022-12-14T11:34:23.855Z,74.00
2022-12-14T11:36:47.696Z,73.44
2022-12-14T11:39:23.680Z,73.18
2022-12-14T11:41:51.921Z,72.92
2022-12-14T11:44:26.206Z,73.47
2022-12-14T11:46:56.527Z,73.56
2022-12-14T11:49:25.735Z,72.96
2022-12-14T11:52:01.550Z,72.82
2022-12-14T11:54:25.353Z,72.85
2022-12-14T11:56:53.706Z,72.13
2022-12-14T11:59:18.628Z,72.74
2022-12-14T12:01:42.568Z,72.88
2022-12-14T12:04:14.261Z,73.58
2022-12-14T12:06:38.017Z,72.48
2022-12-14T12:09:03.784Z,71.46
2022-12-14T12:11:32.764Z,71.43
2022-12-14T12:14:02.728Z,71.50
2022-12-14T12:16:29.823Z,71.42
2022-12-14T12:18:58.605Z,71.94
2022-12-14T12:21:28.059Z,72.30
2022-12-14T12:23:59.372Z,71.79
2022-12-14T12:26:29.306Z,71.50
2022-12-14T12:28:58.643Z,71.76
2022-12-14T12:31:32.978Z,72.56
2022-12-14T12:34:01.571Z,71.85
2022-12-14T12:36:25.974Z,71.75
2022-12-14T12:39:05.308Z,71.86
2022-12-14T12:41:47.801Z,72.65
2022-12-14T12:44:25.928Z,72.08
2022-12-14T12:49:46.106Z,72.85
2022-12-14T12:52:21.419Z,72.45
2022-12-14T12:54:57.117Z,71.99
2022-12-14T12:57:21.958Z,72.91
2022-12-14T12:59:50.209Z,72.50
2022-12-14T13:02:32.991Z,72.85
2022-12-14T13:05:06.967Z,72.27
2022-12-14T13:07:46.352Z,72.61
2022-12-14T13:10:20.292Z,72.04
2022-12-14T13:12:48.911Z,72.56
2022-12-14T13:15:22.059Z,72.55
2022-12-14T13:17:52.463Z,72.48
2022-12-14T13:20:23.999Z,72.66
2022-12-14T13:22:49.646Z,72.17
2022-12-14T13:25:18.587Z,71.37
2022-12-14T13:28:19.437Z,71.91
2022-12-14T13:31:06.635Z,72.10
2022-12-14T13:34:02.829Z,71.83
2022-12-14T13:36:50.150Z,71.51
2022-12-14T13:39:57.404Z,71.69
2022-12-14T13:42:31.860Z,71.45
2022-12-14T13:45:01.404Z,71.18
2022-12-14T13:47:39.938Z,71.25
2022-12-14T13:52:52.093Z,71.45
2022-12-14T13:55:32.038Z,71.78
2022-12-14T13:58:08.053Z,71.66
2022-12-14T14:00:54.145Z,71.21
2022-12-14T14:03:54.412Z,71.75
2022-12-14T14:06:40.008Z,72.02
2022-12-14T14:09:48.305Z,70.78
2022-12-14T14:12:45.074Z,70.88
2022-12-14T14:15:38.440Z,71.38
2022-12-14T14:18:21.457Z,71.42
2022-12-14T14:20:48.286Z,72.06
2022-12-14T14:23:38.025Z,71.31
2022-12-14T14:26:28.068Z,71.84
2022-12-14T14:29:25.260Z,72.40
2022-12-14T14:31:55.725Z,72.98
2022-12-14T14:34:26.753Z,72.26
2022-12-14T14:36:51.936Z,72.23
2022-12-14T14:42:25.027Z,72.82
2022-12-14T14:44:54.705Z,73.17
2022-12-14T14:47:26.799Z,72.30
2022-12-14T14:49:55.977Z,73.12
2022-12-14T14:53:08.585Z,73.60
2022-12-14T14:55:59.363Z,73.68
2022-12-14T14:58:33.413Z,74.01
2022-12-14T15:01:10.812Z,73.77
2022-12-14T15:03:46.479Z,74.04
2022-12-14T15:06:15.786Z,74.16
2022-12-14T15:08:42.244Z,72.86
2022-12-14T15:11:18.266Z,72.67
2022-12-14T15:13:49.032Z,72.25
2022-12-14T15:16:25.741Z,72.93
2022-12-14T15:18:49.414Z,72.53
2022-12-14T15:21:15.647Z,72.79
2022-12-14T15:23:43.739Z,72.69
2022-12-14T15:26:17.628Z,72.90
2022-12-14T15:28:41.512Z,73.08
2022-12-14T15:31:06.080Z,72.79
2022-12-14T15:33:35.038Z,72.83
2022-12-14T15:36:06.075Z,72.38
2022-12-14T15:38:34.556Z,72.63
2022-12-14T15:40:59.950Z,72.18
2022-12-14T15:43:26.869Z,72.32
2022-12-14T15:45:54.283Z,73.23
2022-12-14T15:48:24.715Z,73.43
2022-12-14T15:50:52.784Z,73.62
2022-12-14T15:53:26.213Z,73.35
2022-12-14T15:55:59.839Z,73.91
2022-12-14T15:58:31.949Z,73.66
2022-12-14T16:00:59.765Z,73.15
2022-12-14T16:03:32.801Z,74.62
2022-12-14T16:05:57.949Z,74.94
2022-12-14T16:08:22.474Z,75.22
2022-12-14T16:10:47.700Z,75.32
2022-12-14T16:13:21.905Z,75.21
2022-12-14T16:15:47.303Z,76.54
2022-12-14T16:18:15.580Z,77.03
2022-12-14T16:20:40.189Z,76.93
2022-12-14T16:23:07.669Z,75.93
2022-12-14T16:25:33.449Z,75.59
2022-12-14T16:27:57.117Z,76.04
2022-12-14T16:30:30.754Z,75.63
2022-12-14T16:33:17.366Z,75.87
2022-12-14T16:35:41.208Z,75.42
2022-12-14T16:38:10.146Z,76.12
2022-12-14T16:40:37.189Z,75.13
2022-12-14T16:43:01.146Z,75.70
2022-12-14T16:46:13.202Z,75.30
2022-12-14T16:48:45.158Z,74.93
2022-12-14T16:51:58.111Z,74.95
2022-12-14T16:54:27.268Z,76.63
2022-12-14T16:56:59.174Z,76.14
2022-12-14T16:59:28.454Z,76.07
2022-12-14T17:01:52.679Z,76.10
2022-12-14T17:04:20.376Z,76.81
2022-12-14T17:06:50.433Z,75.82
2022-12-14T17:09:20.371Z,76.56
2022-12-14T17:11:44.654Z,76.30
2022-12-14T17:14:08.295Z,76.68
2022-12-14T17:16:32.075Z,77.49
2022-12-14T17:18:55.773Z,76.47
2022-12-14T17:21:26.572Z,75.99
2022-12-14T17:23:50.632Z,75.97
2022-12-14T17:26:22.192Z,76.96
2022-12-14T17:28:45.910Z,76.10
2022-12-14T17:31:12.595Z,75.73
2022-12-14T17:33:36.429Z,77.31
2022-12-14T17:36:00.015Z,76.94
2022-12-14T17:38:25.550Z,76.35
2022-12-14T17:40:51.391Z,76.91
2022-12-14T17:43:20.136Z,76.46
2022-12-14T17:45:44.190Z,76.15
2022-12-14T17:48:11.591Z,76.82
2022-12-14T17:50:35.328Z,77.13
2022-12-14T17:52:59.385Z,75.56
2022-12-14T17:55:27.320Z,76.18
2022-12-14T17:57:52.197Z,76.88
2022-12-14T18:00:38.541Z,76.13
2022-12-14T18:03:02.685Z,76.20
2022-12-14T18:05:26.462Z,77.59
2022-12-14T18:07:50.405Z,77.57
2022-12-14T18:10:17.723Z,77.30
2022-12-14T18:12:43.213Z,77.74
2022-12-14T18:15:17.414Z,77.71
2022-12-14T18:17:41.126Z,76.92
2022-12-14T18:20:05.073Z,77.38
2022-12-14T18:22:28.809Z,77.31
2022-12-14T18:24:52.376Z,77.22
2022-12-14T18:27:17.052Z,77.59
2022-12-14T18:29:42.130Z,76.96
2022-12-14T18:32:06.705Z,76.87
2022-12-14T18:34:30.255Z,76.16
2022-12-14T18:36:54.320Z,77.12
2022-12-14T18:39:18.283Z,77.28
2022-12-14T18:41:42.004Z,77.50
2022-12-14T18:44:06.010Z,78.14
2022-12-14T18:46:31.504Z,78.27
2022-12-14T18:48:55.670Z,78.34
2022-12-14T18:51:23.541Z,77.42
2022-12-14T18:53:47.283Z,76.69
2022-12-14T18:56:12.849Z,77.96
2022-12-14T18:58:36.470Z,77.45
2022-12-14T19:01:01.372Z,77.13
2022-12-14T19:03:29.300Z,76.82
2022-12-14T19:05:53.855Z,78.05
2022-12-14T19:08:17.539Z,77.89
2022-12-14T19:10:44.161Z,77.51
2022-12-14T19:13:09.655Z,78.68
2022-12-14T19:15:36.184Z,77.87
2022-12-14T19:18:00.533Z,77.44
2022-12-14T19:20:27.065Z,77.54
2022-12-14T19:22:51.602Z,77.37
2022-12-14T19:25:15.792Z,77.57
2022-12-14T19:30:25.128Z,77.37
2022-12-14T19:32:48.691Z,77.13
2022-12-14T19:35:12.878Z,77.13
2022-12-14T19:37:37.918Z,76.61
2022-12-14T19:40:02.557Z,76.98
2022-12-14T19:42:26.610Z,77.40
2022-12-14T19:44:50.283Z,76.70
2022-12-14T19:47:14.185Z,77.38
2022-12-14T19:49:37.976Z,77.10
2022-12-14T19:52:01.629Z,77.33
2022-12-14T19:54:27.906Z,77.98
2022-12-14T19:56:52.129Z,77.44
2022-12-14T19:59:15.749Z,77.24
2022-12-14T20:01:44.675Z,76.94
2022-12-14T20:04:11.545Z,77.44
2022-12-14T20:06:35.429Z,76.88
2022-12-14T20:08:59.860Z,77.33
2022-12-14T20:11:25.376Z,78.42
2022-12-14T20:13:54.701Z,77.39
2022-12-14T20:16:22.140Z,76.72
2022-12-14T20:18:46.411Z,77.88
2022-12-14T20:21:15.009Z,77.97
2022-12-14T20:23:42.629Z,77.37
2022-12-14T20:26:10.532Z,77.07
2022-12-14T20:28:35.778Z,76.58
2022-12-14T20:31:00.602Z,77.40
2022-12-14T20:33:29.914Z,76.49
2022-12-14T20:35:54.708Z,76.46
2022-12-14T20:38:18.365Z,76.98
2022-12-14T20:40:41.993Z,77.26
2022-12-14T20:43:05.650Z,77.21
2022-12-14T20:45:30.731Z,77.23
2022-12-14T20:47:55.487Z,76.47
2022-12-14T20:50:19.342Z,76.72
2022-12-14T20:52:42.966Z,77.09
2022-12-14T20:55:07.326Z,76.99
2022-12-14T20:57:33.163Z,77.33
2022-12-14T20:59:59.339Z,77.40
2022-12-14T21:02:25.806Z,76.89
2022-12-14T21:04:49.551Z,77.43
2022-12-14T21:07:13.187Z,77.44
2022-12-14T21:09:38.112Z,77.91
2022-12-14T21:12:19.164Z,78.03
2022-12-14T21:14:44.803Z,77.51
2022-12-14T21:17:08.398Z,77.71
2022-12-14T21:19:35.948Z,77.26
2022-12-14T21:21:59.784Z,77.83
2022-12-14T21:25:00.403Z,77.67
2022-12-14T21:27:10.225Z,77.58
2022-12-14T21:29:34.220Z,77.48
2022-12-14T21:31:58.038Z,77.48
2022-12-14T21:34:23.855Z,77.40
2022-12-14T21:36:49.458Z,77.59
2022-12-14T21:39:15.067Z,77.94
2022-12-14T21:41:55.960Z,77.02
2022-12-14T21:44:19.735Z,76.83
2022-12-14T21:46:43.337Z,76.91
2022-12-14T21:49:07.618Z,77.27
2022-12-14T21:51:31.359Z,76.67
2022-12-14T21:54:00.724Z,76.45
2022-12-14T21:56:41.478Z,76.79
2022-12-14T21:59:05.189Z,76.78
2022-12-14T22:01:28.927Z,76.70
2022-12-14T22:03:54.158Z,76.99
2022-12-14T22:06:17.815Z,76.90
2022-12-14T22:08:41.497Z,76.71
2022-12-14T22:11:07.130Z,76.77
2022-12-14T22:13:31.399Z,77.13
2022-12-14T22:15:55.310Z,77.03
2022-12-14T22:18:18.987Z,76.82
2022-12-14T22:20:42.660Z,76.95
2022-12-14T22:23:06.306Z,77.92
2022-12-14T22:25:29.926Z,77.62
2022-12-14T22:27:55.075Z,76.55
2022-12-14T22:30:19.167Z,75.63
2022-12-14T22:32:43.226Z,75.31
2022-12-14T22:35:09.628Z,75.80
2022-12-14T22:37:33.322Z,75.18
2022-12-14T22:39:57.014Z,76.38
2022-12-14T22:42:20.689Z,76.41
2022-12-14T22:44:45.866Z,77.29
2022-12-14T22:47:09.549Z,77.37
2022-12-14T22:49:33.185Z,77.20
2022-12-14T22:51:56.881Z,76.80
2022-12-14T22:54:25.431Z,76.39
2022-12-14T22:56:54.080Z,76.27
2022-12-14T22:59:22.248Z,76.90
2022-12-14T23:01:49.730Z,76.64
2022-12-14T23:04:15.437Z,76.37
2022-12-14T23:06:39.462Z,76.72
2022-12-14T23:09:20.550Z,76.63
2022-12-14T23:12:01.421Z,77.20
2022-12-14T23:14:42.332Z,76.69
2022-12-14T23:17:25.872Z,76.60
2022-12-14T23:20:06.757Z,76.79
2022-12-14T23:22:49.847Z,76.39
2022-12-14T23:25:30.801Z,76.18
2022-12-14T23:28:11.772Z,76.59
2022-12-14T23:30:52.874Z,76.76
2022-12-14T23:33:35.237Z,76.75
2022-12-14T23:36:20.080Z,76.42
2022-12-14T23:39:00.825Z,76.38
2022-12-14T23:41:42.025Z,76.38
2022-12-14T23:44:23.079Z,76.45
2022-12-14T23:47:04.125Z,76.84
2022-12-14T23:49:46.740Z,77.11
2022-12-14T23:52:27.621Z,77.02
2022-12-14T23:55:08.481Z,76.69
2022-12-14T23:57:49.681Z,76.83
